»·PEaware :: DAL1194 KSLC-KPDX

DAL1194 :: KSLC-KPDX

FLIGHT INFORMATION

Flight Status: Arrived
Operator:
Delta Air Lines
More flights by this operator :: More flights under this callsign
Pilot: Joe P. (13940)
Aircraft: BOEING 737-800
(B738)
More flights by this aircraft type
Origin: KSLC Salt Lake City Intl
United States
Destination: KPDX Portland Intl
United States
More flights between these airports :: More routes between these airports
Route: +TWF4 TWF J15 BOI J163 BKE DCT JOTBA HHOOD4
File this flight plan on PilotEdge
Remarks: SEL / ABCD KSEA -PBN / A1B1C1D1L1O1S1 NAV / RNVD1E2A1 DOF / 180107 REG / N389DA EET / KZSE0102 RVR / 200
Altitude:
(Current/Filed)
320ft
Speed:
(Current/Filed)
435kts
Departed: 07-Jan-18 02:33 PM
Arrived: 07-Jan-18 04:14 PM
Distance/Time
Traveled:
546nm/1:41
Distance/Time
To Go:
Arrived

Flight Plot

Page will automatically refresh every two minutes.

Flight plan parsing failed; only flown route is shown


Map Options




Map Legend


Flown Route
Filed Route
Departure Airport
Arrival Airport
Navaid (VOR, NDB)
Fix

Horizontal Profiles

Position Reports

Time Latitude Longitude Heading Altitude Ground
Speed
07-Jan-18 13:52 40.787383 -111.981153 284 4235ft 0kts
07-Jan-18 13:53 40.787383 -111.981153 284 4235ft 0kts
07-Jan-18 13:54 40.787383 -111.981153 284 4235ft 0kts
07-Jan-18 13:55 40.787383 -111.981153 284 4235ft 0kts
07-Jan-18 13:56 40.787383 -111.981153 284 4235ft 0kts
07-Jan-18 13:57 40.787383 -111.981153 284 4235ft 0kts
07-Jan-18 13:58 40.787383 -111.981153 284 4235ft 0kts
07-Jan-18 13:59 40.787383 -111.981153 284 4235ft 0kts
07-Jan-18 14:00 40.787383 -111.981153 284 4235ft 0kts
07-Jan-18 14:01 40.787383 -111.981153 284 4235ft 0kts
07-Jan-18 14:02 40.787383 -111.981153 284 4235ft 0kts
07-Jan-18 14:03 40.787383 -111.981153 284 4235ft 0kts
07-Jan-18 14:04 40.787383 -111.981153 284 4235ft 0kts
07-Jan-18 14:05 40.787383 -111.981153 284 4235ft 0kts
07-Jan-18 14:06 40.787383 -111.981153 284 4235ft 0kts
07-Jan-18 14:07 40.787383 -111.981153 284 4235ft 0kts
07-Jan-18 14:08 40.787383 -111.981153 284 4235ft 0kts
07-Jan-18 14:09 40.787383 -111.981153 284 4235ft 0kts
07-Jan-18 14:10 40.787383 -111.981153 284 4235ft 0kts
07-Jan-18 14:11 40.787383 -111.981153 284 4235ft 0kts
07-Jan-18 14:12 40.787383 -111.981153 284 4235ft 0kts
07-Jan-18 14:13 40.787383 -111.981153 284 4235ft 0kts
07-Jan-18 14:14 40.787383 -111.981153 284 4235ft 0kts
07-Jan-18 14:15 40.787383 -111.981153 284 4235ft 0kts
07-Jan-18 14:16 40.787383 -111.981153 284 4234ft 0kts
07-Jan-18 14:17 40.787383 -111.981153 284 4234ft 0kts
07-Jan-18 14:18 40.787383 -111.981153 284 4234ft 0kts
07-Jan-18 14:19 40.787271 -111.980587 284 4234ft 2kts
07-Jan-18 14:20 40.787156 -111.980006 284 4234ft 0kts
07-Jan-18 14:21 40.787156 -111.980006 284 4234ft 0kts
07-Jan-18 14:22 40.787156 -111.980006 284 4234ft 0kts
07-Jan-18 14:23 40.787156 -111.980006 284 4234ft 0kts
07-Jan-18 14:24 40.787156 -111.980006 284 4234ft 0kts
07-Jan-18 14:25 40.787156 -111.980006 284 4234ft 0kts
07-Jan-18 14:26 40.787226 -111.980212 304 4234ft 6kts
07-Jan-18 14:27 40.787752 -111.980308 16 4234ft 4kts
07-Jan-18 14:28 40.789328 -111.979734 21 4234ft 7kts
07-Jan-18 14:29 40.789763 -111.977890 84 4234ft 0kts
07-Jan-18 14:30 40.788078 -111.976968 174 4234ft 17kts
07-Jan-18 14:31 40.782318 -111.976313 174 4234ft 20kts
07-Jan-18 14:32 40.776348 -111.975141 174 4234ft 20kts
07-Jan-18 14:33 40.774462 -111.974473 72 4234ft 0kts
07-Jan-18 14:34 40.774463 -111.974468 71 4234ft 0kts
07-Jan-18 14:35 40.774465 -111.974462 70 4234ft 0kts
07-Jan-18 14:36 40.774702 -111.973418 73 4234ft 9kts
07-Jan-18 14:37 40.775131 -111.973103 354 4234ft 0kts
07-Jan-18 14:38 40.775196 -111.973112 354 4234ft 5kts
07-Jan-18 14:39 40.809408 -111.976855 355 5434ft 173kts
07-Jan-18 14:40 40.853108 -111.978872 356 7736ft 185kts
07-Jan-18 14:41 40.911510 -112.001499 304 8854ft 264kts
07-Jan-18 14:42 40.914295 -112.095971 262 10280ft 261kts
07-Jan-18 14:43 40.904766 -112.191316 263 11100ft 261kts
07-Jan-18 14:44 40.935329 -112.275242 319 11936ft 278kts
07-Jan-18 14:45 40.997369 -112.338101 317 12760ft 281kts
07-Jan-18 14:46 41.056048 -112.407107 317 13579ft 284kts
07-Jan-18 14:47 41.120653 -112.468792 326 14458ft 303kts
07-Jan-18 14:48 41.199105 -112.538149 320 15951ft 359kts
07-Jan-18 14:49 41.278353 -112.621946 315 18498ft 370kts
07-Jan-18 14:50 41.349469 -112.723982 311 20788ft 381kts
07-Jan-18 14:51 41.421361 -112.830451 310 22801ft 392kts
07-Jan-18 14:52 41.493870 -112.941536 310 24569ft 402kts
07-Jan-18 14:53 41.568269 -113.056035 310 26176ft 412kts
07-Jan-18 14:54 41.644116 -113.172878 310 27607ft 421kts
07-Jan-18 14:55 41.721563 -113.291977 310 29091ft 424kts
07-Jan-18 14:56 41.798676 -113.411386 310 30761ft 420kts
07-Jan-18 14:57 41.861985 -113.509910 310 32065ft 417kts
07-Jan-18 14:58 41.950818 -113.648742 310 32264ft 416kts
07-Jan-18 14:59 42.026255 -113.767159 310 32256ft 417kts
07-Jan-18 15:00 42.089067 -113.866126 310 32245ft 418kts
07-Jan-18 15:01 42.164590 -113.985562 309 32242ft 418kts
07-Jan-18 15:02 42.239771 -114.104939 309 32237ft 418kts
07-Jan-18 15:03 42.314982 -114.224376 309 32238ft 418kts
07-Jan-18 15:04 42.390009 -114.344623 309 32239ft 417kts
07-Jan-18 15:05 42.464545 -114.464697 309 32240ft 417kts
07-Jan-18 15:06 42.540738 -114.583784 310 32249ft 417kts
07-Jan-18 15:07 42.616956 -114.702085 309 32249ft 416kts
07-Jan-18 15:08 42.692937 -114.820719 309 32248ft 416kts
07-Jan-18 15:09 42.769456 -114.939639 309 32244ft 417kts
07-Jan-18 15:10 42.845510 -115.058629 309 32240ft 417kts
07-Jan-18 15:11 42.921664 -115.178473 309 32235ft 417kts
07-Jan-18 15:12 42.997449 -115.298299 309 32230ft 417kts
07-Jan-18 15:13 43.073084 -115.418406 308 32229ft 416kts
07-Jan-18 15:14 43.148774 -115.539106 308 32225ft 417kts
07-Jan-18 15:15 43.224107 -115.659734 308 32225ft 416kts
07-Jan-18 15:16 43.299436 -115.780876 308 32229ft 416kts
07-Jan-18 15:17 43.374596 -115.901822 308 32236ft 417kts
07-Jan-18 15:18 43.449352 -116.023055 307 32248ft 416kts
07-Jan-18 15:19 43.524340 -116.145518 307 32257ft 417kts
07-Jan-18 15:20 43.606747 -116.258292 315 32260ft 420kts
07-Jan-18 15:21 43.694356 -116.365381 315 32264ft 419kts
07-Jan-18 15:22 43.781461 -116.472591 315 32267ft 419kts
07-Jan-18 15:23 43.868805 -116.579849 315 32276ft 421kts
07-Jan-18 15:24 43.956488 -116.688047 315 32280ft 421kts
07-Jan-18 15:25 44.043762 -116.796381 314 32284ft 419kts
07-Jan-18 15:26 44.130410 -116.904476 314 32285ft 419kts
07-Jan-18 15:27 44.217363 -117.013417 314 32282ft 419kts
07-Jan-18 15:28 44.304013 -117.122431 313 32270ft 420kts
07-Jan-18 15:29 44.390952 -117.232278 313 32256ft 420kts
07-Jan-18 15:30 44.477601 -117.342218 313 32237ft 421kts
07-Jan-18 15:31 44.564259 -117.452634 313 32222ft 421kts
07-Jan-18 15:32 44.651227 -117.563498 313 32213ft 421kts
07-Jan-18 15:33 44.737538 -117.674537 313 32210ft 421kts
07-Jan-18 15:34 44.821246 -117.788405 300 32208ft 414kts
07-Jan-18 15:35 44.855548 -117.940221 280 32208ft 407kts
07-Jan-18 15:36 44.877350 -118.096694 279 32195ft 407kts
07-Jan-18 15:37 44.897869 -118.253621 278 32180ft 406kts
07-Jan-18 15:38 44.918541 -118.410762 278 32168ft 406kts
07-Jan-18 15:39 44.938657 -118.567443 278 32157ft 405kts
07-Jan-18 15:40 44.958413 -118.724595 278 32145ft 406kts
07-Jan-18 15:41 44.977817 -118.881294 278 32145ft 404kts
07-Jan-18 15:42 44.996958 -119.037832 277 32137ft 405kts
07-Jan-18 15:43 45.015938 -119.195044 277 32131ft 405kts
07-Jan-18 15:44 45.034611 -119.351581 277 32138ft 404kts
07-Jan-18 15:45 45.053125 -119.508696 277 32139ft 404kts
07-Jan-18 15:46 45.071323 -119.665029 277 32139ft 403kts
07-Jan-18 15:47 45.089297 -119.821388 277 32137ft 402kts
07-Jan-18 15:48 45.107084 -119.978080 276 32139ft 402kts
07-Jan-18 15:49 45.124879 -120.134269 276 32138ft 402kts
07-Jan-18 15:50 45.142236 -120.291158 275 32138ft 402kts
07-Jan-18 15:51 45.159079 -120.447285 275 31556ft 395kts
07-Jan-18 15:52 45.196220 -120.592886 292 29328ft 393kts
07-Jan-18 15:53 45.247416 -120.727673 294 27359ft 382kts
07-Jan-18 15:54 45.297492 -120.858286 293 25443ft 373kts
07-Jan-18 15:55 45.346251 -120.986549 293 24160ft 363kts
07-Jan-18 15:56 45.392733 -121.108961 293 23350ft 336kts
07-Jan-18 15:57 45.433591 -121.227308 284 21563ft 330kts
07-Jan-18 15:58 45.458302 -121.353036 282 19759ft 328kts
07-Jan-18 15:59 45.482998 -121.477888 283 17961ft 329kts
07-Jan-18 16:00 45.507885 -121.604339 283 16164ft 334kts
07-Jan-18 16:01 45.529987 -121.733268 273 14361ft 333kts
07-Jan-18 16:02 45.534988 -121.864492 271 12734ft 327kts
07-Jan-18 16:03 45.545060 -121.991284 283 11380ft 319kts
07-Jan-18 16:04 45.570180 -122.110137 283 10308ft 306kts
07-Jan-18 16:05 45.593988 -122.224851 282 9203ft 293kts
07-Jan-18 16:06 45.616149 -122.332233 282 8130ft 272kts
07-Jan-18 16:07 45.636906 -122.433194 282 7016ft 260kts
07-Jan-18 16:08 45.665885 -122.527563 294 5816ft 259kts
07-Jan-18 16:09 45.698907 -122.618554 294 4980ft 250kts
07-Jan-18 16:10 45.729139 -122.701964 294 4968ft 226kts
07-Jan-18 16:11 45.759152 -122.780583 297 4979ft 227kts
07-Jan-18 16:12 45.788356 -122.859819 264 4865ft 223kts
07-Jan-18 16:13 45.744284 -122.913331 206 3983ft 207kts
07-Jan-18 16:14 45.699165 -122.902514 118 3945ft 206kts
07-Jan-18 16:15 45.674236 -122.825750 119 2969ft 198kts
07-Jan-18 16:16 45.650607 -122.764104 119 2248ft 157kts
07-Jan-18 16:17 45.630449 -122.712212 118 1436ft 145kts
07-Jan-18 16:18 45.610874 -122.661881 117 668ft 144kts
07-Jan-18 16:19 45.591590 -122.612427 117 26ft 121kts
07-Jan-18 16:20 45.588079 -122.602199 87 26ft 0kts
07-Jan-18 16:21 45.588079 -122.602199 87 26ft 0kts
07-Jan-18 16:22 45.588079 -122.602199 87 26ft 0kts
07-Jan-18 16:23 45.589621 -122.601853 32 26ft 17kts
07-Jan-18 16:24 45.592739 -122.597338 37 26ft 14kts
07-Jan-18 16:25 45.591783 -122.593906 153 26ft 5kts
07-Jan-18 16:26 45.591283 -122.594138 204 26ft 0kts
07-Jan-18 16:27 45.591283 -122.594138 204 26ft 0kts
07-Jan-18 16:28 45.591283 -122.594138 204 26ft 0kts
07-Jan-18 16:29 45.591283 -122.594138 204 26ft 0kts
07-Jan-18 16:30 45.591283 -122.594138 204 26ft 0kts
07-Jan-18 16:31 45.591283 -122.594138 204 26ft 0kts
07-Jan-18 16:32 45.591283 -122.594138 204 26ft 0kts
07-Jan-18 16:33 45.591283 -122.594138 204 26ft 0kts
07-Jan-18 16:34 45.591283 -122.594138 204 26ft 0kts

Navigation Log

Ident Type
Flight plan parsing failed, navigation log unavailable